Terminal Aerodrome Forecast
Issued by NWS

Home | Current Version | Previous Version | Graphics & Text | Print | Product List | Glossary On
Versions: 1 2 3 4 5 6 7 8 9 10 11 12 13 14 15 16 17 18 19
579
FTUS43 KBIS 262320
TAFDIK
TAF
KDIK 262320Z 2700/2724 07009KT 1SM -RASN BR OVC003
     FM271100 03006KT 1/2SM RASN FG OVC003
     FM271500 05011KT 2SM -RASN BR OVC003
     FM271700 05013KT 3SM -RASN OVC008=

USA.gov is the U.S. government's official web portal to all federal, state and local government web resources and services.